Accueil
METAR-TAF:

METAR-TAF

Aéroports :

Saint-Etienne, France

Aéroport de Saint-Étienne-Loire

latitude: 45-32N, longitude: 004-18E, altitude: 404 m

Observation

Le bulletin a été fait il y a 18 minutes, à 16:30 UTC
Vent 9 kt de est
Température 31°C
Humidité 31%
Pression 1016 hPa
Visibilité 10 km ou plus
pas de nuages en-dessous de 1500 mètres et pas de cumulonimbus.

METAR: LFMH 221630Z AUTO 09009KT CAVOK 31/12 Q1016 NOSIG

Heure: 18:48 (16:48 UTC)

Prévision

Le bulletin a été fait il y a 2 heures et 48 minutes, à 14:00 UTC
Prévision valable du 22 à 15 UTC au 23 à 15 UTC
Vent 5 kt de nord-est
Visibilité 10 km ou plus
pas de nuages en-dessous de 1500 mètres et pas de cumulonimbus.

TAF: LFMH 221400Z 2215/2315 05005KT CAVOK

Observations et prévisions météorologiques de plus de 4000 aéroports (messages METAR et TAF).

Les stations disponibles sont représentées par des disques jaunes et rouges sur la carte.

Passer la souris dessus pour voir le nom de la station.

Cliquer dessus pour voir les observations et prévisions météorologiques.

Pour changer de carte: cliquez sur les boutons verts avec une croix noire pour zoomer, sur le bouton vert avec un tiret pour effectuer un zoom arrière, ou sur les flèches vertes pour les cartes adjacentes.


METAR-TAF: